Time;durP1;ratioP1;P1;durP2;ratioP2;P2;SDS_P1;SDS_P2;PMS_P1;PMS_P2;Temp;Humidity;BMP_temperature;BMP_pressure;BME280_temperature;BME280_humidity;BME280_pressure;Samples;Min_cycle;Max_cycle;Signal;HPM_P1;HPM_P2
2022/10/02 00:00:15;;;;;;;3.40;3.00;;;12.00;23.20;;;;;;5071757;28;20453;-47
2022/10/02 00:03:00;;;;;;;5.83;2.87;;;11.90;27.20;;;;;;5071647;28;20483;-47
2022/10/02 00:05:36;;;;;;;3.70;2.90;;;11.90;31.60;;;;;;5071681;28;20407;-48
2022/10/02 00:08:24;;;;;;;6.40;2.90;;;11.90;36.30;;;;;;5071373;28;20412;-45
2022/10/02 00:10:54;;;;;;;2.87;2.67;;;11.90;41.30;;;;;;5063810;28;20436;-45
2022/10/02 00:13:27;;;;;;;6.10;3.07;;;11.80;43.80;;;;;;5071565;28;20403;-46
2022/10/02 00:15:53;;;;;;;4.03;2.77;;;11.70;47.20;;;;;;5071531;28;20420;-46
2022/10/02 00:18:23;;;;;;;3.80;2.77;;;11.80;48.70;;;;;;5071135;28;20413;-46
2022/10/02 00:21:17;;;;;;;4.73;2.67;;;11.80;51.10;;;;;;5070518;28;20419;-45
2022/10/02 00:23:53;;;;;;;4.73;2.93;;;11.80;49.90;;;;;;5071067;28;20407;-46
2022/10/02 00:26:37;;;;;;;3.17;2.87;;;11.80;50.70;;;;;;5071512;28;20403;-51
2022/10/02 00:29:23;;;;;;;3.20;2.90;;;11.90;47.70;;;;;;5091442;28;20456;-49
2022/10/02 00:32:27;;;;;;;6.50;2.90;;;11.90;43.40;;;;;;5091278;28;20398;-46
2022/10/02 00:35:17;;;;;;;4.30;3.27;;;12.00;36.10;;;;;;5091337;28;20445;-45
2022/10/02 00:37:54;;;;;;;3.23;2.60;;;12.00;35.70;;;;;;5090936;28;20430;-46
2022/10/02 00:40:51;;;;;;;4.43;2.60;;;12.00;33.80;;;;;;5091191;28;20412;-49
2022/10/02 00:43:47;;;;;;;3.97;2.83;;;12.10;30.30;;;;;;5090996;28;20481;-50
2022/10/02 00:46:27;;;;;;;6.13;3.77;;;12.20;21.10;;;;;;5091048;28;20421;-47
2022/10/02 00:49:01;;;;;;;4.13;3.57;;;12.20;23.00;;;;;;5090862;28;20442;-47
2022/10/02 00:51:59;;;;;;;8.80;3.00;;;12.10;24.60;;;;;;5090835;28;20410;-47
2022/10/02 00:55:03;;;;;;;4.67;2.50;;;12.10;24.30;;;;;;5061974;28;20788;-46
2022/10/02 00:57:35;;;;;;;3.33;2.50;;;12.10;27.30;;;;;;5090712;28;20430;-50
2022/10/02 01:00:10;;;;;;;3.43;2.80;;;12.20;18.70;;;;;;5089469;28;20876;-45
2022/10/02 01:02:35;;;;;;;5.10;2.90;;;12.20;19.20;;;;;;5090637;28;20951;-45
2022/10/02 01:05:07;;;;;;;6.33;3.20;;;12.20;19.80;;;;;;5090604;28;20411;-45
2022/10/02 01:07:36;;;;;;;5.30;2.80;;;12.20;18.10;;;;;;5090379;28;20185;-47
2022/10/02 01:10:02;;;;;;;4.00;2.40;;;12.20;11.60;;;;;;5089028;28;20524;-47
2022/10/02 01:12:28;;;;;;;6.43;2.70;;;12.30;11.70;;;;;;5089177;28;20414;-47
2022/10/02 01:14:53;;;;;;;3.60;2.73;;;12.20;11.80;;;;;;5090289;28;20464;-46
2022/10/02 01:17:28;;;;;;;3.30;2.47;;;12.20;9.40;;;;;;5090432;28;20199;-49
2022/10/02 01:19:54;;;;;;;3.70;2.70;;;12.20;10.50;;;;;;5073397;28;20173;-48
2022/10/02 01:22:28;;;;;;;5.70;2.43;;;12.20;7.40;;;;;;5069943;28;20438;-49
2022/10/02 01:24:55;;;;;;;5.10;2.80;;;12.20;8.50;;;;;;5069944;28;20506;-47
2022/10/02 01:27:21;;;;;;;6.17;2.97;;;12.20;3.70;;;;;;5078532;28;20437;-45
2022/10/02 01:30:00;;;;;;;8.83;3.43;;;12.20;2.80;;;;;;5089959;28;20454;-49
2022/10/02 01:32:30;;;;;;;5.13;3.00;;;12.30;1.00;;;;;;5089324;28;20424;-45
2022/10/02 01:34:56;;;;;;;4.10;2.90;;;12.20;2.20;;;;;;5090225;28;20481;-49
2022/10/02 01:37:26;;;;;;;6.00;3.00;;;12.20;1.00;;;;;;5090069;28;20519;-47
2022/10/02 01:39:52;;;;;;;5.00;3.07;;;12.20;1.70;;;;;;5089868;28;20497;-49
2022/10/02 01:42:20;;;;;;;3.80;2.63;;;12.20;1.50;;;;;;5090087;28;20825;-50
2022/10/02 01:44:46;;;;;;;5.10;3.30;;;12.20;1.70;;;;;;5090013;28;20218;-48
2022/10/02 01:47:22;;;;;;;4.07;2.80;;;12.10;1.20;;;;;;5089979;28;20897;-50
2022/10/02 01:50:10;;;;;;;5.53;2.73;;;12.20;1.00;;;;;;5089711;28;20460;-49
2022/10/02 01:53:06;;;;;;;7.40;2.93;;;12.10;1.00;;;;;;5089765;28;20713;-51
2022/10/02 01:55:49;;;;;;;3.70;2.87;;;12.20;1.00;;;;;;5089972;28;20397;-50
2022/10/02 01:58:20;;;;;;;5.03;3.17;;;12.10;3.30;;;;;;5089753;28;20419;-47
2022/10/02 02:01:26;;;;;;;7.47;2.97;;;12.20;1.00;;;;;;5089661;28;20406;-45
2022/10/02 02:03:57;;;;;;;7.00;5.00;;;12.20;1.00;;;;;;5026872;28;20535;-49
2022/10/02 02:09:56;;;;;;;5.17;2.97;;;12.10;1.00;;;;;;5026832;28;20563;-47
2022/10/02 02:12:38;;;;;;;4.93;3.00;;;12.10;1.00;;;;;;5027129;28;20409;-48
2022/10/02 02:15:10;;;;;;;3.40;2.50;;;12.10;1.00;;;;;;5026947;28;20463;-45
2022/10/02 02:17:47;;;;;;;6.53;2.93;;;12.20;1.00;;;;;;5026966;28;20405;-50
2022/10/02 02:20:21;;;;;;;6.17;3.13;;;12.30;1.00;;;;;;5007750;28;20907;-48
2022/10/02 02:22:50;;;;;;;5.17;3.10;;;12.20;1.00;;;;;;5007208;28;20437;-46
2022/10/02 02:25:21;;;;;;;3.70;3.17;;;12.30;1.00;;;;;;4987425;28;21087;-48
2022/10/02 02:27:54;;;;;;;4.47;2.97;;;12.30;1.00;;;;;;5011614;28;20452;-47
2022/10/02 02:30:21;;;;;;;5.20;2.77;;;12.30;1.00;;;;;;5026706;28;20460;-48
2022/10/02 02:32:54;;;;;;;5.80;3.00;;;12.40;1.00;;;;;;5026798;28;20416;-50
2022/10/02 02:35:26;;;;;;;5.23;2.87;;;12.30;1.00;;;;;;5076392;28;20484;-49
2022/10/02 02:37:58;;;;;;;5.60;3.50;;;12.30;1.00;;;;;;5089516;28;20513;-50
2022/10/02 02:40:28;;;;;;;5.17;3.23;;;12.30;1.00;;;;;;5089250;28;20403;-46
2022/10/02 02:43:00;;;;;;;4.97;2.87;;;12.30;1.00;;;;;;5089320;28;20418;-50
2022/10/02 02:45:35;;;;;;;5.77;3.00;;;12.30;1.00;;;;;;5093183;28;20411;-45
2022/10/02 02:48:11;;;;;;;10.57;3.10;;;12.30;1.00;;;;;;5093183;28;20391;-46
2022/10/02 02:50:46;;;;;;;4.60;3.07;;;12.30;1.00;;;;;;5093359;28;20449;-51
2022/10/02 02:53:18;;;;;;;4.57;2.80;;;12.20;1.00;;;;;;5093204;28;20402;-49
2022/10/02 02:55:59;;;;;;;5.77;3.30;;;12.20;1.00;;;;;;5092799;28;20395;-47
2022/10/02 02:58:34;;;;;;;5.50;3.10;;;12.20;1.00;;;;;;5092967;28;20856;-46
2022/10/02 03:01:00;;;;;;;5.43;3.30;;;12.20;1.00;;;;;;5093074;28;20490;-52
2022/10/02 03:03:25;;;;;;;8.60;3.37;;;12.10;1.00;;;;;;5092952;28;20544;-49
2022/10/02 03:06:00;;;;;;;5.20;3.10;;;12.20;1.00;;;;;;5092856;28;20181;-45
2022/10/02 03:08:31;;;;;;;3.90;2.73;;;12.20;1.00;;;;;;5093030;28;20157;-45
2022/10/02 03:11:24;;;;;;;5.07;3.17;;;12.20;1.80;;;;;;5092611;28;20429;-44
2022/10/02 03:14:16;;;;;;;6.10;2.83;;;12.20;5.20;;;;;;5092565;28;20421;-48
2022/10/02 03:16:51;;;;;;;4.80;3.23;;;12.20;4.90;;;;;;5081564;28;20460;-46
2022/10/02 03:19:19;;;;;;;3.33;3.03;;;12.20;5.40;;;;;;5080803;28;20414;-46
2022/10/02 03:21:52;;;;;;;6.23;3.17;;;12.20;7.20;;;;;;5072357;28;20469;-49
2022/10/02 03:25:13;;;;;;;5.30;3.20;;;12.20;11.50;;;;;;5072059;28;21113;-46
2022/10/02 03:27:49;;;;;;;5.00;3.50;;;12.20;12.00;;;;;;5050329;28;20427;-49
2022/10/02 03:30:23;;;;;;;4.20;3.03;;;12.20;15.70;;;;;;5092242;28;20991;-51
2022/10/02 03:32:52;;;;;;;8.07;3.00;;;12.20;19.60;;;;;;5092393;28;20395;-46
2022/10/02 03:35:20;;;;;;;6.77;2.87;;;12.20;17.40;;;;;;5092107;28;20395;-48
2022/10/02 03:37:52;;;;;;;5.80;3.23;;;12.20;15.30;;;;;;5091330;28;20426;-49
2022/10/02 03:40:25;;;;;;;3.77;2.83;;;12.30;8.00;;;;;;5092023;28;20499;-46
2022/10/02 03:42:51;;;;;;;5.43;2.93;;;12.30;6.40;;;;;;5092102;28;20956;-45
2022/10/02 03:45:18;;;;;;;5.67;3.77;;;12.40;1.00;;;;;;5092104;28;20448;-45
2022/10/02 03:47:44;;;;;;;4.63;3.30;;;12.70;1.00;;;;;;5092237;28;20403;-48
2022/10/02 03:50:13;;;;;;;3.90;2.70;;;12.70;1.00;;;;;;5090840;28;20499;-47
2022/10/02 03:52:40;;;;;;;4.90;3.10;;;12.70;1.00;;;;;;5091906;28;20402;-46
2022/10/02 03:55:17;;;;;;;4.53;3.23;;;12.70;1.00;;;;;;5090818;28;20877;-46
2022/10/02 03:57:43;;;;;;;6.87;3.30;;;12.70;1.00;;;;;;5092067;28;20395;-45
2022/10/02 04:00:18;;;;;;;5.13;2.80;;;12.70;1.00;;;;;;5091916;28;20443;-44
2022/10/02 04:03:13;;;;;;;5.70;2.67;;;12.70;1.00;;;;;;5091909;28;20497;-49
2022/10/02 04:05:58;;;;;;;5.50;3.33;;;12.70;1.00;;;;;;5089604;28;20477;-44
2022/10/02 04:08:35;;;;;;;6.50;3.73;;;12.70;1.00;;;;;;5091735;28;20442;-46
2022/10/02 04:11:17;;;;;;;4.60;3.30;;;12.70;1.00;;;;;;5091842;28;20391;-49
2022/10/02 04:13:47;;;;;;;5.23;3.47;;;12.70;1.00;;;;;;5091752;28;20410;-47
2022/10/02 04:16:18;;;;;;;5.50;3.53;;;12.60;1.00;;;;;;5091352;28;20797;-45
2022/10/02 04:19:02;;;;;;;6.90;3.67;;;12.50;1.00;;;;;;5084441;28;20415;-48
2022/10/02 04:21:38;;;;;;;5.23;3.20;;;12.50;1.00;;;;;;5071308;28;20499;-53
2022/10/02 04:24:13;;;;;;;3.60;2.90;;;12.40;1.00;;;;;;5071366;28;20407;-53
2022/10/02 04:26:46;;;;;;;6.77;3.60;;;12.30;1.00;;;;;;5068884;28;20427;-49
2022/10/02 04:29:11;;;;;;;4.30;2.87;;;12.30;1.00;;;;;;5070274;28;20567;-47
2022/10/02 04:31:37;;;;;;;5.77;2.97;;;12.30;1.00;;;;;;5063482;28;20417;-45
2022/10/02 04:34:11;;;;;;;4.27;2.87;;;12.20;1.00;;;;;;5051463;28;20546;-46
2022/10/02 04:36:44;;;;;;;5.77;2.97;;;12.20;1.00;;;;;;5058812;28;20229;-46
2022/10/02 04:39:54;;;;;;;4.77;3.27;;;12.10;1.00;;;;;;5064873;28;20404;-46
2022/10/02 04:42:36;;;;;;;5.40;3.67;;;12.00;1.00;;;;;;5047230;28;20436;-51
2022/10/02 04:45:32;;;;;;;6.00;3.17;;;11.90;1.00;;;;;;5066099;28;20435;-54
2022/10/02 04:48:30;;;;;;;6.30;3.60;;;11.90;1.00;;;;;;5070624;28;20509;-53
2022/10/02 04:51:19;;;;;;;4.57;3.33;;;11.80;1.00;;;;;;5059398;28;20483;-53
2022/10/02 04:54:12;;;;;;;6.60;3.17;;;11.80;1.00;;;;;;5052449;28;20417;-54
2022/10/02 04:56:56;;;;;;;4.73;3.50;;;11.80;1.00;;;;;;5064770;28;20434;-50
2022/10/02 04:59:45;;;;;;;5.80;3.07;;;11.70;1.00;;;;;;5063281;28;20814;-54
2022/10/02 05:02:43;;;;;;;6.10;3.93;;;11.70;1.00;;;;;;5063345;28;20438;-53
2022/10/02 05:05:41;;;;;;;6.67;3.17;;;11.70;1.00;;;;;;5068734;28;20489;-53
2022/10/02 05:08:32;;;;;;;7.10;3.30;;;11.70;1.00;;;;;;5046736;28;20432;-53
2022/10/02 05:11:15;;;;;;;5.43;3.20;;;11.60;1.00;;;;;;5045216;28;20456;-54
2022/10/02 05:13:56;;;;;;;6.03;3.40;;;11.60;1.00;;;;;;5050016;28;21002;-51
2022/10/02 05:16:34;;;;;;;8.20;3.40;;;11.50;2.70;;;;;;5058358;28;20415;-55
2022/10/02 05:19:10;;;;;;;6.33;3.20;;;11.40;3.90;;;;;;5069852;28;20419;-52
2022/10/02 05:22:07;;;;;;;7.23;4.57;;;11.40;11.60;;;;;;5069915;28;20414;-51
2022/10/02 05:25:09;;;;;;;5.30;3.10;;;11.30;18.00;;;;;;5068520;28;20744;-54
2022/10/02 05:27:59;;;;;;;4.93;3.83;;;11.30;17.70;;;;;;5068805;28;20750;-52
2022/10/02 05:30:36;;;;;;;4.27;3.10;;;11.30;24.40;;;;;;5055543;28;20958;-46
2022/10/02 05:33:12;;;;;;;4.03;3.20;;;11.20;26.30;;;;;;5067249;28;20909;-47
2022/10/02 05:35:51;;;;;;;7.90;3.50;;;11.20;26.80;;;;;;5069315;28;20459;-46
2022/10/02 05:38:57;;;;;;;4.93;3.60;;;11.20;28.60;;;;;;5064867;28;20439;-49
2022/10/02 05:41:50;;;;;;;9.30;4.10;;;11.10;30.10;;;;;;5007330;28;20469;-50
2022/10/02 05:44:21;;;;;;;5.80;3.70;;;11.00;32.80;;;;;;5067525;28;20435;-45
2022/10/02 05:46:57;;;;;;;7.93;3.90;;;11.00;38.90;;;;;;5069643;28;20433;-45
2022/10/02 05:49:34;;;;;;;8.53;3.87;;;11.00;45.80;;;;;;5055313;28;20547;-47
2022/10/02 05:52:11;;;;;;;5.10;3.77;;;11.10;49.30;;;;;;5049198;28;20500;-51
2022/10/02 05:54:43;;;;;;;4.77;3.50;;;11.10;54.20;;;;;;5052024;28;20441;-51
2022/10/02 05:57:22;;;;;;;6.87;3.70;;;11.20;54.70;;;;;;5061303;28;20420;-45
2022/10/02 06:00:24;;;;;;;9.57;3.53;;;11.40;48.00;;;;;;5050653;28;20905;-47
2022/10/02 06:02:56;;;;;;;3.70;3.23;;;11.50;45.00;;;;;;5038029;28;20908;-46
2022/10/02 06:05:54;;;;;;;4.53;3.40;;;11.60;43.80;;;;;;5069332;28;20431;-45
2022/10/02 06:08:41;;;;;;;4.67;3.67;;;11.70;44.50;;;;;;5069209;28;20829;-47
2022/10/02 06:11:41;;;;;;;7.33;4.13;;;11.80;39.40;;;;;;5068649;28;20443;-45
2022/10/02 06:14:20;;;;;;;6.33;4.40;;;11.90;33.10;;;;;;5065816;28;20435;-46
2022/10/02 06:16:54;;;;;;;5.63;3.90;;;12.10;25.30;;;;;;5051766;28;20766;-52
2022/10/02 06:19:41;;;;;;;5.50;3.80;;;12.20;21.40;;;;;;5063305;28;20414;-50
2022/10/02 06:22:14;;;;;;;5.53;3.40;;;12.40;11.00;;;;;;5073292;28;20411;-45
2022/10/02 06:24:57;;;;;;;5.73;3.80;;;12.50;4.00;;;;;;5073001;28;20415;-46
2022/10/02 06:27:31;;;;;;;4.57;3.40;;;12.60;1.00;;;;;;5064404;28;20446;-47
2022/10/02 06:30:03;;;;;;;6.27;3.60;;;12.70;1.00;;;;;;5056189;28;20470;-48
2022/10/02 06:32:49;;;;;;;4.10;3.50;;;12.70;1.00;;;;;;5072993;28;20755;-47
2022/10/02 06:35:27;;;;;;;4.90;3.90;;;12.70;1.00;;;;;;5060145;28;20419;-50
2022/10/02 06:38:38;;;;;;;7.10;3.93;;;12.70;1.00;;;;;;5072930;28;20442;-45
2022/10/02 06:41:47;;;;;;;6.57;3.60;;;12.70;1.00;;;;;;5072816;28;20407;-50
2022/10/02 06:44:26;;;;;;;5.70;3.80;;;12.70;1.00;;;;;;5030010;28;20460;-48
2022/10/02 06:47:03;;;;;;;6.30;4.33;;;12.70;1.00;;;;;;5059308;28;20423;-47
2022/10/02 06:49:50;;;;;;;6.93;4.03;;;12.70;1.00;;;;;;5072278;28;20791;-45
2022/10/02 06:52:42;;;;;;;7.83;3.90;;;12.80;1.00;;;;;;5072434;28;20445;-48
2022/10/02 06:55:26;;;;;;;6.23;3.80;;;12.90;1.00;;;;;;5072912;28;20905;-48
2022/10/02 06:58:04;;;;;;;5.17;3.77;;;13.00;1.00;;;;;;5075431;28;20738;-44
2022/10/02 07:00:39;;;;;;;5.63;3.90;;;13.00;1.00;;;;;;5071221;28;20503;-45
2022/10/02 07:03:16;;;;;;;4.87;3.50;;;13.20;1.00;;;;;;5054871;28;20435;-47
2022/10/02 07:06:03;;;;;;;6.63;4.27;;;13.30;1.00;;;;;;5067655;28;20428;-47
2022/10/02 07:09:08;;;;;;;5.87;4.20;;;13.40;1.00;;;;;;5052582;28;20424;-49
2022/10/02 07:11:55;;;;;;;5.00;3.90;;;13.50;1.00;;;;;;5029835;28;20440;-51
2022/10/02 07:14:54;;;;;;;7.23;4.33;;;13.60;1.00;;;;;;5072162;28;20414;-48
2022/10/02 07:17:40;;;;;;;4.40;3.80;;;13.70;1.00;;;;;;5067409;28;20588;-47
2022/10/02 07:20:19;;;;;;;9.90;4.70;;;13.90;1.00;;;;;;5069933;28;21089;-50
2022/10/02 07:22:58;;;;;;;6.47;4.20;;;14.00;1.00;;;;;;5063946;28;20956;-46
2022/10/02 07:25:45;;;;;;;8.07;4.73;;;14.20;1.00;;;;;;5068587;28;20413;-50
2022/10/02 07:28:38;;;;;;;6.17;4.27;;;14.30;1.00;;;;;;5071749;28;20420;-46
2022/10/02 07:31:13;;;;;;;6.20;3.97;;;14.50;1.00;;;;;;5071827;28;20964;-50
2022/10/02 07:33:58;;;;;;;5.87;3.90;;;14.50;1.00;;;;;;5071897;28;20445;-47
2022/10/02 07:36:46;;;;;;;5.10;3.80;;;14.60;1.00;;;;;;5057978;28;20459;-50
2022/10/02 07:40:00;;;;;;;6.50;4.20;;;14.80;1.00;;;;;;5071780;28;20419;-52
2022/10/02 07:43:14;;;;;;;6.97;4.30;;;15.00;99.90;;;;;;5055658;28;20609;-49
2022/10/02 07:45:45;;;;;;;6.70;3.73;;;15.20;99.90;;;;;;5070816;28;20865;-47
2022/10/02 07:48:25;;;;;;;5.63;3.80;;;15.40;99.90;;;;;;5069502;28;20530;-45
2022/10/02 07:54:24;;;;;;;6.03;4.17;;;15.70;1.00;;;;;;5067771;28;20426;-48
2022/10/02 07:56:54;;;;;;;5.10;3.87;;;15.90;1.00;;;;;;5068173;28;20730;-49
2022/10/02 07:59:20;;;;;;;7.20;4.17;;;16.10;1.00;;;;;;5067934;28;20409;-46
2022/10/02 08:01:49;;;;;;;4.90;4.13;;;16.30;1.00;;;;;;5067941;28;20461;-45
2022/10/02 08:04:34;;;;;;;6.80;4.13;;;16.40;99.90;;;;;;5067406;28;20425;-46
2022/10/02 08:07:02;;;;;;;5.53;4.43;;;16.60;99.90;;;;;;5067281;28;20422;-46
2022/10/02 08:09:40;;;;;;;4.50;4.10;;;16.80;1.00;;;;;;5056369;28;20463;-49
2022/10/02 08:12:25;;;;;;;4.83;4.20;;;17.00;6.90;;;;;;5060188;28;20428;-46
2022/10/02 08:14:54;;;;;;;5.67;4.30;;;17.50;99.90;;;;;;5069740;28;20425;-47
2022/10/02 08:17:31;;;;;;;5.33;4.00;;;17.80;1.00;;;;;;5070849;28;21007;-47
2022/10/02 08:20:37;;;;;;;4.97;4.27;;;17.90;1.00;;;;;;5069429;28;20808;-51
2022/10/02 08:23:28;;;;;;;5.87;4.03;;;18.00;1.00;;;;;;5056147;28;20478;-49
2022/10/02 08:26:11;;;;;;;7.27;4.17;;;18.30;99.90;;;;;;5070763;28;20430;-51
2022/10/02 08:28:51;;;;;;;5.10;4.10;;;18.20;99.90;;;;;;5062649;28;21276;-49
2022/10/02 08:31:17;;;;;;;4.70;3.80;;;18.60;99.90;;;;;;5054325;28;20969;-47
2022/10/02 08:33:43;;;;;;;7.50;4.70;;;19.20;1.00;;;;;;5061915;28;20448;-45
2022/10/02 08:36:43;;;;;;;4.67;3.87;;;19.50;1.00;;;;;;5066241;28;20499;-47
2022/10/02 08:39:29;;;;;;;5.03;4.53;;;20.00;1.00;;;;;;5070862;28;20182;-48
2022/10/02 08:41:55;;;;;;;4.43;4.03;;;20.60;18.00;;;;;;5051175;28;20419;-48
2022/10/02 08:44:32;;;;;;;6.93;4.97;;;20.70;78.70;;;;;;5065873;28;21018;-46
2022/10/02 08:47:31;;;;;;;8.53;5.10;;;20.80;88.60;;;;;;5056363;28;20204;-49
2022/10/02 08:50:18;;;;;;;4.93;4.50;;;20.60;90.90;;;;;;5070408;28;21050;-51
2022/10/02 08:52:59;;;;;;;4.83;4.50;;;20.70;88.80;;;;;;5060932;28;20427;-48
2022/10/02 08:55:34;;;;;;;4.40;4.00;;;21.00;87.90;;;;;;5067486;28;20435;-49
2022/10/02 08:58:37;;;;;;;8.83;5.70;;;21.00;87.50;;;;;;5070251;28;20926;-47
2022/10/02 09:01:31;;;;;;;4.87;4.47;;;21.60;87.00;;;;;;5061040;28;20431;-45
2022/10/02 09:04:20;;;;;;;4.70;4.30;;;21.90;84.10;;;;;;5067653;28;20438;-45
2022/10/02 09:07:23;;;;;;;5.13;4.60;;;21.60;81.40;;;;;;5070110;28;20434;-44
2022/10/02 09:10:28;;;;;;;6.40;4.53;;;20.90;82.80;;;;;;5055075;28;20762;-45
2022/10/02 09:13:16;;;;;;;6.70;4.90;;;20.00;85.90;;;;;;5076730;28;20431;-46
2022/10/02 09:15:50;;;;;;;8.07;5.10;;;19.00;90.00;;;;;;5069785;28;20411;-47
2022/10/02 09:19:01;;;;;;;6.03;4.67;;;18.60;99.90;;;;;;5069758;28;20416;-46
2022/10/02 09:21:50;;;;;;;6.07;4.67;;;18.80;99.90;;;;;;5069978;28;20429;-45
2022/10/02 09:24:49;;;;;;;5.83;4.63;;;19.70;99.90;;;;;;5069962;28;20421;-48
2022/10/02 09:27:41;;;;;;;4.60;4.20;;;19.80;1.00;;;;;;5057200;28;20417;-45
2022/10/02 09:30:26;;;;;;;5.20;4.00;;;19.40;80.80;;;;;;5068940;28;20842;-47
2022/10/02 09:33:29;;;;;;;4.23;3.83;;;19.90;1.00;;;;;;5074997;28;20835;-50
2022/10/02 09:36:22;;;;;;;8.10;4.43;;;20.40;1.00;;;;;;5062374;28;20927;-47
2022/10/02 09:38:57;;;;;;;4.57;4.17;;;20.70;1.00;;;;;;5069345;28;20428;-44
2022/10/02 09:41:48;;;;;;;4.43;4.03;;;20.40;1.00;;;;;;5056989;28;20433;-46
2022/10/02 09:44:57;;;;;;;4.83;4.27;;;20.30;99.90;;;;;;5067533;28;20489;-45
2022/10/02 09:47:51;;;;;;;5.40;4.00;;;20.20;1.00;;;;;;5063050;28;20517;-48
2022/10/02 09:50:33;;;;;;;4.90;4.00;;;21.00;1.00;;;;;;5067408;28;21266;-46
2022/10/02 09:53:26;;;;;;;4.77;3.80;;;21.20;25.10;;;;;;5065668;28;20488;-48
2022/10/02 09:56:17;;;;;;;6.80;4.20;;;21.10;49.10;;;;;;5065039;28;20438;-47
2022/10/02 09:59:01;;;;;;;5.30;4.20;;;20.10;1.00;;;;;;5065306;28;20554;-45
2022/10/02 10:01:58;;;;;;;6.67;4.00;;;19.10;1.00;;;;;;5064491;28;21006;-45
2022/10/02 10:04:55;;;;;;;4.67;3.83;;;18.00;99.90;;;;;;5062220;28;20434;-44
2022/10/02 10:07:39;;;;;;;3.70;3.40;;;16.90;51.50;;;;;;5060951;28;20441;-49
2022/10/02 10:10:29;;;;;;;3.03;2.80;;;16.40;74.30;;;;;;5062329;28;20559;-44
2022/10/02 10:13:11;;;;;;;3.10;2.60;;;16.10;99.90;;;;;;5055484;28;20419;-49
2022/10/02 10:16:10;;;;;;;4.10;3.00;;;16.10;1.00;;;;;;5066703;28;20414;-44
2022/10/02 10:18:53;;;;;;;4.80;2.93;;;16.60;99.90;;;;;;5066038;28;20433;-47
2022/10/02 10:21:28;;;;;;;7.40;4.10;;;17.30;1.00;;;;;;5067091;28;20941;-49
2022/10/02 10:24:06;;;;;;;4.03;3.30;;;18.20;99.90;;;;;;5066652;28;20415;-49
2022/10/02 10:26:46;;;;;;;5.27;3.60;;;19.20;1.00;;;;;;5066541;28;21070;-46
2022/10/02 10:29:30;;;;;;;6.43;3.63;;;19.70;88.50;;;;;;5057328;28;20865;-45
2022/10/02 10:32:20;;;;;;;4.47;3.87;;;20.30;99.90;;;;;;5061730;28;20451;-44
2022/10/02 10:35:07;;;;;;;5.37;3.67;;;20.90;96.00;;;;;;5064053;28;20506;-46
2022/10/02 10:41:00;;;;;;;5.00;4.60;;;23.00;93.70;;;;;;5067747;28;20425;-47
2022/10/02 10:44:07;;;;;;;4.70;4.30;;;23.40;85.50;;;;;;5067795;28;20941;-45
2022/10/02 10:47:01;;;;;;;4.90;4.00;;;23.10;83.90;;;;;;5064987;28;20439;-46
2022/10/02 10:49:37;;;;;;;5.07;4.10;;;22.30;88.20;;;;;;5051913;28;20460;-46
2022/10/02 10:52:40;;;;;;;4.37;4.00;;;21.40;89.50;;;;;;5048689;28;20454;-49
2022/10/02 10:55:31;;;;;;;6.70;4.33;;;20.80;91.10;;;;;;5048626;28;20416;-45
2022/10/02 10:58:14;;;;;;;6.43;4.00;;;20.50;92.10;;;;;;5048824;28;20423;-48
2022/10/02 11:00:46;;;;;;;4.03;3.63;;;20.30;92.00;;;;;;5055405;28;20434;-44
2022/10/02 11:03:17;;;;;;;5.00;3.90;;;20.00;91.90;;;;;;5068664;28;20904;-46
2022/10/02 11:06:02;;;;;;;4.97;4.50;;;20.00;93.50;;;;;;5070983;28;20927;-46
2022/10/02 11:08:42;;;;;;;4.57;4.27;;;20.10;93.50;;;;;;5066795;28;20450;-48
2022/10/02 11:11:32;;;;;;;4.30;4.00;;;20.10;93.10;;;;;;5064447;28;20466;-45
2022/10/02 11:14:22;;;;;;;5.07;4.57;;;20.00;92.70;;;;;;5060680;28;20422;-47
2022/10/02 11:17:06;;;;;;;4.57;4.17;;;20.00;92.80;;;;;;5067895;28;20779;-46
2022/10/02 11:20:07;;;;;;;5.60;3.90;;;19.60;91.30;;;;;;5064962;28;20533;-47
2022/10/02 11:23:02;;;;;;;4.33;3.80;;;19.40;92.20;;;;;;5052884;28;20440;-43
2022/10/02 11:25:36;;;;;;;5.00;4.00;;;19.10;94.20;;;;;;5060528;28;21117;-47
2022/10/02 11:28:32;;;;;;;4.77;3.77;;;18.90;93.30;;;;;;5054363;28;20416;-45
2022/10/02 11:31:42;;;;;;;4.13;3.57;;;18.70;94.60;;;;;;5071832;28;20556;-44
2022/10/02 11:34:26;;;;;;;4.23;3.90;;;18.50;93.90;;;;;;5036767;28;20486;-46
2022/10/02 11:37:16;;;;;;;4.27;3.87;;;18.20;94.40;;;;;;5063248;28;20975;-49
2022/10/02 11:39:56;;;;;;;3.83;3.50;;;18.20;95.00;;;;;;5070971;28;20408;-46
2022/10/02 11:42:55;;;;;;;5.43;3.57;;;18.10;95.40;;;;;;5071312;28;20422;-47
2022/10/02 11:45:37;;;;;;;4.07;3.73;;;18.20;95.20;;;;;;5070448;28;20443;-49
2022/10/02 11:48:08;;;;;;;4.40;4.00;;;18.10;95.70;;;;;;5059154;28;20878;-49
2022/10/02 11:50:59;;;;;;;4.00;3.20;;;18.10;94.90;;;;;;5071251;28;20470;-45
2022/10/02 11:53:46;;;;;;;4.00;3.70;;;18.10;94.90;;;;;;5071297;28;20431;-45
2022/10/02 11:57:00;;;;;;;3.70;3.20;;;18.10;95.00;;;;;;5070970;28;20484;-49
2022/10/02 11:59:44;;;;;;;4.37;3.70;;;18.20;95.00;;;;;;5058985;28;20427;-48
2022/10/02 12:02:34;;;;;;;3.77;3.40;;;18.40;95.50;;;;;;5057739;28;20429;-45
2022/10/02 12:05:09;;;;;;;4.43;3.67;;;18.60;94.90;;;;;;5070859;28;20423;-45
2022/10/02 12:07:37;;;;;;;3.90;3.30;;;18.80;94.50;;;;;;5070835;28;20423;-46
2022/10/02 12:10:41;;;;;;;3.90;3.60;;;18.90;93.90;;;;;;5070879;28;20467;-50
2022/10/02 12:13:25;;;;;;;3.90;2.90;;;18.80;94.20;;;;;;5062411;28;20476;-48
2022/10/02 12:16:28;;;;;;;4.83;3.33;;;18.70;94.00;;;;;;5070220;28;20839;-46
2022/10/02 12:19:21;;;;;;;3.40;3.10;;;18.60;94.20;;;;;;5070810;28;20809;-46
2022/10/02 12:28:35;;;;;;;3.03;2.67;;;19.00;94.40;;;;;;5052930;28;20841;-51
2022/10/02 12:31:06;;;;;;;4.00;3.40;;;19.00;94.50;;;;;;5069086;28;20479;-53
2022/10/02 12:33:58;;;;;;;3.40;3.10;;;18.90;93.80;;;;;;5071659;28;20443;-54
2022/10/02 12:36:28;;;;;;;4.03;3.10;;;18.90;94.20;;;;;;5070241;28;20457;-51
2022/10/02 12:38:57;;;;;;;3.53;3.23;;;19.30;93.50;;;;;;5077143;28;20410;-54
2022/10/02 12:41:54;;;;;;;3.77;3.27;;;19.50;93.20;;;;;;5056807;28;21061;-52
2022/10/02 12:44:34;;;;;;;3.90;2.87;;;19.70;93.20;;;;;;5054408;28;20435;-50
2022/10/02 12:47:08;;;;;;;4.13;2.97;;;19.80;90.20;;;;;;5061796;28;20514;-49
2022/10/02 12:50:05;;;;;;;5.60;3.03;;;19.50;91.40;;;;;;5052627;28;20459;-54
2022/10/02 12:52:53;;;;;;;4.00;3.57;;;19.40;92.00;;;;;;5051948;28;21172;-49
2022/10/02 12:55:40;;;;;;;3.53;2.93;;;19.50;91.80;;;;;;5059279;28;20443;-50
2022/10/02 12:58:22;;;;;;;5.57;3.83;;;19.60;91.70;;;;;;5069491;28;20763;-51
2022/10/02 13:01:29;;;;;;;5.30;3.30;;;19.20;92.10;;;;;;5068620;28;20438;-52
2022/10/02 13:04:22;;;;;;;4.23;3.80;;;19.20;92.70;;;;;;5046865;28;20432;-49
2022/10/02 13:07:18;;;;;;;5.20;4.20;;;19.70;93.20;;;;;;5057062;28;20411;-51
2022/10/02 13:10:09;;;;;;;3.50;3.20;;;19.80;92.40;;;;;;5069847;28;20458;-55
2022/10/02 13:13:02;;;;;;;4.60;3.60;;;20.00;92.20;;;;;;5066991;28;20455;-52
2022/10/02 13:15:58;;;;;;;4.00;3.70;;;20.10;92.10;;;;;;5067499;28;20429;-51
2022/10/02 13:18:31;;;;;;;4.00;3.60;;;20.30;91.40;;;;;;5067151;28;20396;-55
2022/10/02 13:21:13;;;;;;;3.77;3.50;;;20.30;90.50;;;;;;5068318;28;20438;-52
2022/10/02 13:24:02;;;;;;;4.80;3.63;;;20.10;91.30;;;;;;5068073;28;20896;-50
2022/10/02 13:26:42;;;;;;;3.93;3.30;;;19.70;92.00;;;;;;5069797;28;20944;-48
2022/10/02 13:29:45;;;;;;;4.70;3.60;;;19.90;92.10;;;;;;5069434;28;20430;-50
2022/10/02 13:32:42;;;;;;;3.90;3.60;;;20.00;90.70;;;;;;5068699;28;20422;-53
2022/10/02 13:35:23;;;;;;;6.40;3.97;;;19.80;91.30;;;;;;5046208;28;20457;-53
2022/10/02 13:38:27;;;;;;;4.60;4.20;;;19.60;91.70;;;;;;5076037;28;20486;-52
2022/10/02 13:41:18;;;;;;;9.27;7.23;;;19.30;92.30;;;;;;5071089;28;21027;-53
2022/10/02 13:43:51;;;;;;;5.47;4.00;;;19.40;93.00;;;;;;5069445;28;20442;-52
2022/10/02 13:46:52;;;;;;;5.20;3.57;;;19.50;92.60;;;;;;5069294;28;20460;-48
2022/10/02 13:49:32;;;;;;;4.40;4.00;;;19.30;92.50;;;;;;5069063;28;20831;-48
2022/10/02 13:52:13;;;;;;;3.70;3.40;;;18.90;92.90;;;;;;5069211;28;20448;-53
2022/10/02 13:54:49;;;;;;;6.93;4.20;;;18.50;94.50;;;;;;5063764;28;20408;-48
2022/10/02 13:57:42;;;;;;;6.53;4.03;;;18.40;95.10;;;;;;5068945;28;20447;-54
2022/10/02 14:00:37;;;;;;;6.70;5.03;;;18.50;95.90;;;;;;5066899;28;20501;-52
2022/10/02 14:03:27;;;;;;;4.73;4.33;;;18.70;95.10;;;;;;5066064;28;20425;-53
2022/10/02 14:06:01;;;;;;;4.37;3.97;;;18.80;95.10;;;;;;5065500;28;20415;-52
2022/10/02 14:08:59;;;;;;;5.23;4.60;;;19.20;93.50;;;;;;5067275;28;21022;-50
2022/10/02 14:11:55;;;;;;;5.40;4.10;;;19.40;93.10;;;;;;5063809;28;20445;-50
2022/10/02 14:14:46;;;;;;;7.93;3.83;;;19.70;92.00;;;;;;5064670;28;20426;-55
2022/10/02 14:17:30;;;;;;;4.30;3.90;;;19.90;91.50;;;;;;5063842;28;20518;-49
2022/10/02 14:20:20;;;;;;;5.37;4.43;;;20.10;92.30;;;;;;5067014;28;20414;-50
2022/10/02 14:23:06;;;;;;;4.00;3.70;;;20.40;91.00;;;;;;5067332;28;21494;-52
2022/10/02 14:26:07;;;;;;;5.23;3.83;;;20.00;91.30;;;;;;5066167;28;20800;-49
2022/10/02 14:28:51;;;;;;;4.90;4.00;;;19.70;91.60;;;;;;5050501;28;20521;-52